sensor_id;sensor_type;location;lat;lon;timestamp;P1;durP1;ratioP1;P2;durP2;ratioP2
21645;SDS011;10984;45.712;4.800;2022-11-20T00:03:59;8.32;;;3.25;;
21645;SDS011;10984;45.712;4.800;2022-11-20T00:06:25;5.53;;;2.80;;
21645;SDS011;10984;45.712;4.800;2022-11-20T00:08:53;6.57;;;3.15;;
21645;SDS011;10984;45.712;4.800;2022-11-20T00:11:38;7.15;;;3.30;;
21645;SDS011;10984;45.712;4.800;2022-11-20T00:14:04;4.13;;;2.58;;
21645;SDS011;10984;45.712;4.800;2022-11-20T00:16:30;5.78;;;3.00;;
21645;SDS011;10984;45.712;4.800;2022-11-20T00:18:57;7.13;;;3.33;;
21645;SDS011;10984;45.712;4.800;2022-11-20T00:21:23;6.93;;;2.70;;
21645;SDS011;10984;45.712;4.800;2022-11-20T00:23:51;9.00;;;3.40;;
21645;SDS011;10984;45.712;4.800;2022-11-20T00:26:19;7.80;;;3.03;;
21645;SDS011;10984;45.712;4.800;2022-11-20T00:31:30;9.13;;;3.00;;
21645;SDS011;10984;45.712;4.800;2022-11-20T00:33:56;5.60;;;2.75;;
21645;SDS011;10984;45.712;4.800;2022-11-20T00:36:22;7.70;;;3.95;;
21645;SDS011;10984;45.712;4.800;2022-11-20T00:38:51;4.75;;;2.42;;
21645;SDS011;10984;45.712;4.800;2022-11-20T00:41:18;5.60;;;2.67;;
21645;SDS011;10984;45.712;4.800;2022-11-20T00:43:43;5.85;;;2.67;;
21645;SDS011;10984;45.712;4.800;2022-11-20T00:46:10;5.40;;;2.53;;
21645;SDS011;10984;45.712;4.800;2022-11-20T00:48:39;6.15;;;2.92;;
21645;SDS011;10984;45.712;4.800;2022-11-20T00:51:04;6.00;;;2.85;;
21645;SDS011;10984;45.712;4.800;2022-11-20T00:53:30;6.35;;;2.50;;
21645;SDS011;10984;45.712;4.800;2022-11-20T00:55:57;5.50;;;2.45;;
21645;SDS011;10984;45.712;4.800;2022-11-20T00:58:25;5.57;;;2.65;;
21645;SDS011;10984;45.712;4.800;2022-11-20T01:00:54;6.68;;;3.40;;
21645;SDS011;10984;45.712;4.800;2022-11-20T01:03:30;5.82;;;2.85;;
21645;SDS011;10984;45.712;4.800;2022-11-20T01:09:02;4.85;;;2.40;;
21645;SDS011;10984;45.712;4.800;2022-11-20T01:11:46;7.50;;;2.95;;
21645;SDS011;10984;45.712;4.800;2022-11-20T01:14:13;7.35;;;2.40;;
21645;SDS011;10984;45.712;4.800;2022-11-20T01:16:43;5.18;;;2.50;;
21645;SDS011;10984;45.712;4.800;2022-11-20T01:19:12;12.00;;;3.35;;
21645;SDS011;10984;45.712;4.800;2022-11-20T01:21:40;4.50;;;2.55;;
21645;SDS011;10984;45.712;4.800;2022-11-20T01:24:08;6.57;;;2.45;;
21645;SDS011;10984;45.712;4.800;2022-11-20T01:26:37;6.07;;;2.80;;
21645;SDS011;10984;45.712;4.800;2022-11-20T01:29:04;5.78;;;2.95;;
21645;SDS011;10984;45.712;4.800;2022-11-20T01:31:31;5.38;;;2.47;;
21645;SDS011;10984;45.712;4.800;2022-11-20T01:34:00;9.95;;;2.83;;
21645;SDS011;10984;45.712;4.800;2022-11-20T01:36:28;4.75;;;2.33;;
21645;SDS011;10984;45.712;4.800;2022-11-20T01:38:56;5.03;;;2.35;;
21645;SDS011;10984;45.712;4.800;2022-11-20T01:41:23;6.32;;;2.88;;
21645;SDS011;10984;45.712;4.800;2022-11-20T01:44:10;7.60;;;2.53;;
21645;SDS011;10984;45.712;4.800;2022-11-20T01:46:40;7.25;;;2.38;;
21645;SDS011;10984;45.712;4.800;2022-11-20T01:52:07;7.40;;;2.30;;
21645;SDS011;10984;45.712;4.800;2022-11-20T01:54:54;6.53;;;2.30;;
21645;SDS011;10984;45.712;4.800;2022-11-20T01:57:25;7.35;;;2.60;;
21645;SDS011;10984;45.712;4.800;2022-11-20T01:59:56;5.53;;;2.20;;
21645;SDS011;10984;45.712;4.800;2022-11-20T02:02:28;4.60;;;2.10;;
21645;SDS011;10984;45.712;4.800;2022-11-20T02:04:54;6.38;;;3.20;;
21645;SDS011;10984;45.712;4.800;2022-11-20T02:07:25;8.65;;;4.18;;
21645;SDS011;10984;45.712;4.800;2022-11-20T02:09:52;7.00;;;2.92;;
21645;SDS011;10984;45.712;4.800;2022-11-20T02:12:18;6.93;;;3.10;;
21645;SDS011;10984;45.712;4.800;2022-11-20T02:15:03;6.05;;;2.42;;
21645;SDS011;10984;45.712;4.800;2022-11-20T02:17:29;5.28;;;2.30;;
21645;SDS011;10984;45.712;4.800;2022-11-20T02:19:54;4.97;;;2.03;;
21645;SDS011;10984;45.712;4.800;2022-11-20T02:25:23;7.10;;;2.35;;
21645;SDS011;10984;45.712;4.800;2022-11-20T02:27:51;5.35;;;2.47;;
21645;SDS011;10984;45.712;4.800;2022-11-20T02:30:17;4.47;;;1.75;;
21645;SDS011;10984;45.712;4.800;2022-11-20T02:32:42;4.20;;;2.00;;
21645;SDS011;10984;45.712;4.800;2022-11-20T02:35:09;6.03;;;2.00;;
21645;SDS011;10984;45.712;4.800;2022-11-20T02:37:54;5.00;;;2.47;;
21645;SDS011;10984;45.712;4.800;2022-11-20T02:40:40;3.83;;;1.83;;
21645;SDS011;10984;45.712;4.800;2022-11-20T02:43:06;5.65;;;2.70;;
21645;SDS011;10984;45.712;4.800;2022-11-20T02:45:32;8.05;;;2.80;;
21645;SDS011;10984;45.712;4.800;2022-11-20T02:47:58;6.47;;;2.30;;
21645;SDS011;10984;45.712;4.800;2022-11-20T02:50:24;3.75;;;1.25;;
21645;SDS011;10984;45.712;4.800;2022-11-20T02:52:49;5.68;;;2.10;;
21645;SDS011;10984;45.712;4.800;2022-11-20T02:55:15;5.57;;;2.10;;
21645;SDS011;10984;45.712;4.800;2022-11-20T02:57:41;5.10;;;2.25;;
21645;SDS011;10984;45.712;4.800;2022-11-20T03:00:06;3.58;;;1.70;;
21645;SDS011;10984;45.712;4.800;2022-11-20T03:02:33;7.10;;;2.20;;
21645;SDS011;10984;45.712;4.800;2022-11-20T03:04:59;4.93;;;2.10;;
21645;SDS011;10984;45.712;4.800;2022-11-20T03:07:24;5.28;;;1.95;;
21645;SDS011;10984;45.712;4.800;2022-11-20T03:09:50;4.78;;;1.95;;
21645;SDS011;10984;45.712;4.800;2022-11-20T03:12:16;6.68;;;1.80;;
21645;SDS011;10984;45.712;4.800;2022-11-20T03:14:41;3.00;;;1.38;;
21645;SDS011;10984;45.712;4.800;2022-11-20T03:17:07;3.40;;;1.48;;
21645;SDS011;10984;45.712;4.800;2022-11-20T03:19:33;8.52;;;2.00;;
21645;SDS011;10984;45.712;4.800;2022-11-20T03:21:59;3.95;;;2.17;;
21645;SDS011;10984;45.712;4.800;2022-11-20T03:24:25;5.18;;;2.63;;
21645;SDS011;10984;45.712;4.800;2022-11-20T03:26:51;5.05;;;1.80;;
21645;SDS011;10984;45.712;4.800;2022-11-20T03:29:16;5.55;;;2.10;;
21645;SDS011;10984;45.712;4.800;2022-11-20T03:31:42;3.45;;;1.77;;
21645;SDS011;10984;45.712;4.800;2022-11-20T03:34:08;3.97;;;1.83;;
21645;SDS011;10984;45.712;4.800;2022-11-20T03:36:37;3.42;;;1.10;;
21645;SDS011;10984;45.712;4.800;2022-11-20T03:39:06;2.90;;;1.45;;
21645;SDS011;10984;45.712;4.800;2022-11-20T03:41:35;5.93;;;1.90;;
21645;SDS011;10984;45.712;4.800;2022-11-20T03:44:03;5.00;;;2.15;;
21645;SDS011;10984;45.712;4.800;2022-11-20T03:46:30;5.65;;;1.50;;
21645;SDS011;10984;45.712;4.800;2022-11-20T03:48:56;2.17;;;1.10;;
21645;SDS011;10984;45.712;4.800;2022-11-20T03:51:23;3.88;;;1.52;;
21645;SDS011;10984;45.712;4.800;2022-11-20T03:53:51;6.45;;;2.25;;
21645;SDS011;10984;45.712;4.800;2022-11-20T03:56:19;4.65;;;1.65;;
21645;SDS011;10984;45.712;4.800;2022-11-20T03:58:48;3.22;;;1.55;;
21645;SDS011;10984;45.712;4.800;2022-11-20T04:01:15;3.78;;;1.67;;
21645;SDS011;10984;45.712;4.800;2022-11-20T04:03:43;3.28;;;1.67;;
21645;SDS011;10984;45.712;4.800;2022-11-20T04:06:13;3.28;;;1.60;;
21645;SDS011;10984;45.712;4.800;2022-11-20T04:08:39;3.30;;;1.70;;
21645;SDS011;10984;45.712;4.800;2022-11-20T04:13:52;4.35;;;1.80;;
21645;SDS011;10984;45.712;4.800;2022-11-20T04:16:19;4.20;;;1.85;;
21645;SDS011;10984;45.712;4.800;2022-11-20T04:18:46;5.10;;;1.67;;
21645;SDS011;10984;45.712;4.800;2022-11-20T04:21:12;3.45;;;1.60;;
21645;SDS011;10984;45.712;4.800;2022-11-20T04:23:38;4.70;;;1.45;;
21645;SDS011;10984;45.712;4.800;2022-11-20T04:26:05;2.67;;;1.38;;
21645;SDS011;10984;45.712;4.800;2022-11-20T04:28:32;4.45;;;1.65;;
21645;SDS011;10984;45.712;4.800;2022-11-20T04:33:44;4.47;;;1.65;;
21645;SDS011;10984;45.712;4.800;2022-11-20T04:41:40;4.15;;;2.05;;
21645;SDS011;10984;45.712;4.800;2022-11-20T04:44:06;4.80;;;1.65;;
21645;SDS011;10984;45.712;4.800;2022-11-20T04:46:36;5.43;;;2.60;;
21645;SDS011;10984;45.712;4.800;2022-11-20T04:49:04;4.13;;;1.80;;
21645;SDS011;10984;45.712;4.800;2022-11-20T04:51:30;4.07;;;1.75;;
21645;SDS011;10984;45.712;4.800;2022-11-20T04:53:56;4.50;;;1.83;;
21645;SDS011;10984;45.712;4.800;2022-11-20T04:56:22;3.60;;;1.63;;
21645;SDS011;10984;45.712;4.800;2022-11-20T04:58:48;4.05;;;1.90;;
21645;SDS011;10984;45.712;4.800;2022-11-20T05:01:14;3.85;;;1.58;;
21645;SDS011;10984;45.712;4.800;2022-11-20T05:03:42;4.18;;;1.88;;
21645;SDS011;10984;45.712;4.800;2022-11-20T05:06:10;2.92;;;1.50;;
21645;SDS011;10984;45.712;4.800;2022-11-20T05:08:54;3.90;;;1.60;;
21645;SDS011;10984;45.712;4.800;2022-11-20T05:11:20;3.75;;;1.45;;
21645;SDS011;10984;45.712;4.800;2022-11-20T05:13:47;5.25;;;1.50;;
21645;SDS011;10984;45.712;4.800;2022-11-20T05:16:16;3.05;;;1.38;;
21645;SDS011;10984;45.712;4.800;2022-11-20T05:18:47;4.55;;;1.67;;
21645;SDS011;10984;45.712;4.800;2022-11-20T05:21:13;3.30;;;1.75;;
21645;SDS011;10984;45.712;4.800;2022-11-20T05:23:39;5.20;;;1.55;;
21645;SDS011;10984;45.712;4.800;2022-11-20T05:26:07;3.95;;;1.77;;
21645;SDS011;10984;45.712;4.800;2022-11-20T05:28:36;5.28;;;1.65;;
21645;SDS011;10984;45.712;4.800;2022-11-20T05:33:47;3.47;;;1.23;;
21645;SDS011;10984;45.712;4.800;2022-11-20T05:36:13;3.47;;;1.45;;
21645;SDS011;10984;45.712;4.800;2022-11-20T05:38:40;3.00;;;1.58;;
21645;SDS011;10984;45.712;4.800;2022-11-20T05:41:07;7.00;;;1.75;;
21645;SDS011;10984;45.712;4.800;2022-11-20T05:43:53;3.40;;;1.50;;
21645;SDS011;10984;45.712;4.800;2022-11-20T05:46:19;4.43;;;1.70;;
21645;SDS011;10984;45.712;4.800;2022-11-20T05:48:46;4.00;;;1.70;;
21645;SDS011;10984;45.712;4.800;2022-11-20T05:51:13;3.55;;;1.65;;
21645;SDS011;10984;45.712;4.800;2022-11-20T05:53:40;10.80;;;1.75;;
21645;SDS011;10984;45.712;4.800;2022-11-20T05:56:08;4.30;;;1.80;;
21645;SDS011;10984;45.712;4.800;2022-11-20T05:58:35;5.03;;;1.58;;
21645;SDS011;10984;45.712;4.800;2022-11-20T06:03:48;4.20;;;1.67;;
21645;SDS011;10984;45.712;4.800;2022-11-20T06:06:15;3.30;;;1.20;;
21645;SDS011;10984;45.712;4.800;2022-11-20T06:08:42;3.22;;;1.42;;
21645;SDS011;10984;45.712;4.800;2022-11-20T06:11:09;8.77;;;1.77;;
21645;SDS011;10984;45.712;4.800;2022-11-20T06:13:36;3.97;;;1.95;;
21645;SDS011;10984;45.712;4.800;2022-11-20T06:16:02;4.22;;;1.70;;
21645;SDS011;10984;45.712;4.800;2022-11-20T06:18:28;5.68;;;2.17;;
21645;SDS011;10984;45.712;4.800;2022-11-20T06:23:40;5.18;;;1.83;;
21645;SDS011;10984;45.712;4.800;2022-11-20T06:26:07;7.00;;;3.15;;
21645;SDS011;10984;45.712;4.800;2022-11-20T06:28:34;5.07;;;2.38;;
21645;SDS011;10984;45.712;4.800;2022-11-20T06:31:00;6.72;;;2.28;;
21645;SDS011;10984;45.712;4.800;2022-11-20T06:33:26;4.60;;;2.22;;
21645;SDS011;10984;45.712;4.800;2022-11-20T06:35:52;5.68;;;2.42;;
21645;SDS011;10984;45.712;4.800;2022-11-20T06:38:21;6.18;;;2.63;;
21645;SDS011;10984;45.712;4.800;2022-11-20T06:40:46;4.38;;;2.17;;
21645;SDS011;10984;45.712;4.800;2022-11-20T06:43:12;4.75;;;1.98;;
21645;SDS011;10984;45.712;4.800;2022-11-20T06:45:37;6.78;;;1.80;;
21645;SDS011;10984;45.712;4.800;2022-11-20T06:48:03;3.83;;;2.00;;
21645;SDS011;10984;45.712;4.800;2022-11-20T06:50:29;4.43;;;1.80;;
21645;SDS011;10984;45.712;4.800;2022-11-20T06:52:55;4.50;;;1.70;;
21645;SDS011;10984;45.712;4.800;2022-11-20T06:55:20;2.90;;;1.33;;
21645;SDS011;10984;45.712;4.800;2022-11-20T06:57:46;6.18;;;2.03;;
21645;SDS011;10984;45.712;4.800;2022-11-20T07:00:12;4.85;;;1.85;;
21645;SDS011;10984;45.712;4.800;2022-11-20T07:02:38;4.28;;;2.08;;
21645;SDS011;10984;45.712;4.800;2022-11-20T07:05:04;3.30;;;1.75;;
21645;SDS011;10984;45.712;4.800;2022-11-20T07:07:30;5.03;;;2.70;;
21645;SDS011;10984;45.712;4.800;2022-11-20T07:09:55;8.35;;;3.40;;
21645;SDS011;10984;45.712;4.800;2022-11-20T07:12:21;5.72;;;2.80;;
21645;SDS011;10984;45.712;4.800;2022-11-20T07:14:46;7.30;;;3.45;;
21645;SDS011;10984;45.712;4.800;2022-11-20T07:17:12;5.45;;;2.80;;
21645;SDS011;10984;45.712;4.800;2022-11-20T07:19:38;4.82;;;2.45;;
21645;SDS011;10984;45.712;4.800;2022-11-20T07:22:04;6.93;;;3.00;;
21645;SDS011;10984;45.712;4.800;2022-11-20T07:24:29;5.32;;;2.80;;
21645;SDS011;10984;45.712;4.800;2022-11-20T07:26:55;5.85;;;3.28;;
21645;SDS011;10984;45.712;4.800;2022-11-20T07:29:21;6.15;;;2.45;;
21645;SDS011;10984;45.712;4.800;2022-11-20T07:31:46;4.20;;;2.30;;
21645;SDS011;10984;45.712;4.800;2022-11-20T07:34:12;7.25;;;2.70;;
21645;SDS011;10984;45.712;4.800;2022-11-20T07:36:38;4.47;;;2.15;;
21645;SDS011;10984;45.712;4.800;2022-11-20T07:39:04;4.72;;;2.28;;
21645;SDS011;10984;45.712;4.800;2022-11-20T07:41:29;9.05;;;3.13;;
21645;SDS011;10984;45.712;4.800;2022-11-20T07:43:55;6.03;;;2.42;;
21645;SDS011;10984;45.712;4.800;2022-11-20T07:46:20;6.32;;;3.05;;
21645;SDS011;10984;45.712;4.800;2022-11-20T07:48:46;5.95;;;3.20;;
21645;SDS011;10984;45.712;4.800;2022-11-20T07:51:12;7.55;;;2.80;;
21645;SDS011;10984;45.712;4.800;2022-11-20T07:53:38;5.25;;;2.50;;
21645;SDS011;10984;45.712;4.800;2022-11-20T07:56:04;4.35;;;2.35;;
21645;SDS011;10984;45.712;4.800;2022-11-20T07:58:30;6.10;;;2.22;;
21645;SDS011;10984;45.712;4.800;2022-11-20T08:00:58;10.20;;;1.85;;
21645;SDS011;10984;45.712;4.800;2022-11-20T08:03:42;5.40;;;2.13;;
21645;SDS011;10984;45.712;4.800;2022-11-20T08:06:08;3.53;;;1.70;;
21645;SDS011;10984;45.712;4.800;2022-11-20T08:08:34;4.32;;;1.73;;
21645;SDS011;10984;45.712;4.800;2022-11-20T08:10:59;3.58;;;1.70;;
21645;SDS011;10984;45.712;4.800;2022-11-20T08:13:45;5.90;;;1.80;;
21645;SDS011;10984;45.712;4.800;2022-11-20T08:16:29;7.57;;;1.92;;
21645;SDS011;10984;45.712;4.800;2022-11-20T08:18:55;5.57;;;1.80;;
21645;SDS011;10984;45.712;4.800;2022-11-20T08:21:21;4.45;;;1.73;;
21645;SDS011;10984;45.712;4.800;2022-11-20T08:23:46;7.18;;;1.92;;
21645;SDS011;10984;45.712;4.800;2022-11-20T08:26:12;5.47;;;1.88;;
21645;SDS011;10984;45.712;4.800;2022-11-20T08:28:38;4.90;;;2.38;;
21645;SDS011;10984;45.712;4.800;2022-11-20T08:31:03;3.70;;;1.63;;
21645;SDS011;10984;45.712;4.800;2022-11-20T08:33:29;7.13;;;1.63;;
21645;SDS011;10984;45.712;4.800;2022-11-20T08:38:42;5.22;;;1.77;;
21645;SDS011;10984;45.712;4.800;2022-11-20T08:41:11;4.13;;;1.85;;
21645;SDS011;10984;45.712;4.800;2022-11-20T08:46:40;6.07;;;2.00;;
21645;SDS011;10984;45.712;4.800;2022-11-20T08:49:09;5.45;;;1.77;;
21645;SDS011;10984;45.712;4.800;2022-11-20T08:51:36;5.45;;;2.15;;
21645;SDS011;10984;45.712;4.800;2022-11-20T08:54:02;3.78;;;2.20;;
21645;SDS011;10984;45.712;4.800;2022-11-20T08:56:28;7.85;;;2.28;;
21645;SDS011;10984;45.712;4.800;2022-11-20T08:58:54;5.18;;;2.20;;
21645;SDS011;10984;45.712;4.800;2022-11-20T09:01:20;5.00;;;1.80;;
21645;SDS011;10984;45.712;4.800;2022-11-20T09:04:08;7.22;;;2.28;;
21645;SDS011;10984;45.712;4.800;2022-11-20T09:06:34;5.05;;;1.73;;
21645;SDS011;10984;45.712;4.800;2022-11-20T09:08:59;5.55;;;2.00;;
21645;SDS011;10984;45.712;4.800;2022-11-20T09:11:25;6.75;;;2.28;;
21645;SDS011;10984;45.712;4.800;2022-11-20T09:13:51;4.63;;;1.92;;
21645;SDS011;10984;45.712;4.800;2022-11-20T09:16:16;3.58;;;1.60;;
21645;SDS011;10984;45.712;4.800;2022-11-20T09:18:42;6.65;;;1.80;;
21645;SDS011;10984;45.712;4.800;2022-11-20T09:21:11;7.30;;;2.08;;
21645;SDS011;10984;45.712;4.800;2022-11-20T09:23:38;7.72;;;1.45;;
21645;SDS011;10984;45.712;4.800;2022-11-20T09:26:05;4.45;;;1.63;;
21645;SDS011;10984;45.712;4.800;2022-11-20T09:28:32;6.20;;;1.77;;
21645;SDS011;10984;45.712;4.800;2022-11-20T09:30:58;3.85;;;1.50;;
21645;SDS011;10984;45.712;4.800;2022-11-20T09:33:24;5.22;;;1.10;;
21645;SDS011;10984;45.712;4.800;2022-11-20T09:35:50;3.97;;;1.10;;
21645;SDS011;10984;45.712;4.800;2022-11-20T09:38:15;3.80;;;1.33;;
21645;SDS011;10984;45.712;4.800;2022-11-20T09:46:29;3.75;;;1.25;;
21645;SDS011;10984;45.712;4.800;2022-11-20T09:55:24;4.30;;;1.10;;
21645;SDS011;10984;45.712;4.800;2022-11-20T09:57:52;6.15;;;0.90;;
21645;SDS011;10984;45.712;4.800;2022-11-20T10:00:18;6.05;;;1.15;;
21645;SDS011;10984;45.712;4.800;2022-11-20T10:06:07;2.97;;;0.80;;
21645;SDS011;10984;45.712;4.800;2022-11-20T10:08:41;4.10;;;1.23;;
21645;SDS011;10984;45.712;4.800;2022-11-20T10:14:16;3.47;;;0.80;;
21645;SDS011;10984;45.712;4.800;2022-11-20T10:33:52;4.38;;;1.10;;
21645;SDS011;10984;45.712;4.800;2022-11-20T10:42:14;3.30;;;1.08;;
21645;SDS011;10984;45.712;4.800;2022-11-20T10:44:58;4.60;;;0.90;;
21645;SDS011;10984;45.712;4.800;2022-11-20T10:47:43;4.25;;;0.73;;
21645;SDS011;10984;45.712;4.800;2022-11-20T10:53:37;6.18;;;0.88;;
21645;SDS011;10984;45.712;4.800;2022-11-20T10:59:00;4.50;;;1.50;;
21645;SDS011;10984;45.712;4.800;2022-11-20T11:01:27;1.65;;;0.75;;
21645;SDS011;10984;45.712;4.800;2022-11-20T11:03:54;3.60;;;0.80;;
21645;SDS011;10984;45.712;4.800;2022-11-20T11:11:57;2.78;;;1.00;;
21645;SDS011;10984;45.712;4.800;2022-11-20T11:14:22;1.58;;;0.50;;
21645;SDS011;10984;45.712;4.800;2022-11-20T11:19:43;3.33;;;0.80;;
21645;SDS011;10984;45.712;4.800;2022-11-20T11:22:10;5.75;;;1.30;;
21645;SDS011;10984;45.712;4.800;2022-11-20T11:24:51;4.72;;;1.42;;
21645;SDS011;10984;45.712;4.800;2022-11-20T11:27:17;2.42;;;0.90;;
21645;SDS011;10984;45.712;4.800;2022-11-20T11:29:43;4.18;;;1.35;;
21645;SDS011;10984;45.712;4.800;2022-11-20T11:40:44;6.90;;;1.73;;
21645;SDS011;10984;45.712;4.800;2022-11-20T12:00:45;1.95;;;0.90;;
21645;SDS011;10984;45.712;4.800;2022-11-20T12:06:24;2.40;;;0.93;;
21645;SDS011;10984;45.712;4.800;2022-11-20T12:08:53;2.53;;;0.98;;
21645;SDS011;10984;45.712;4.800;2022-11-20T12:16:52;5.20;;;1.00;;
21645;SDS011;10984;45.712;4.800;2022-11-20T12:19:19;5.53;;;1.75;;
21645;SDS011;10984;45.712;4.800;2022-11-20T12:30:36;2.58;;;1.33;;
21645;SDS011;10984;45.712;4.800;2022-11-20T12:48:36;2.97;;;1.10;;
21645;SDS011;10984;45.712;4.800;2022-11-20T13:02:46;3.85;;;1.20;;
21645;SDS011;10984;45.712;4.800;2022-11-20T13:08:40;3.25;;;0.88;;
21645;SDS011;10984;45.712;4.800;2022-11-20T13:16:38;6.70;;;1.13;;
21645;SDS011;10984;45.712;4.800;2022-11-20T13:19:25;4.30;;;1.17;;
21645;SDS011;10984;45.712;4.800;2022-11-20T13:21:53;1.58;;;0.80;;
21645;SDS011;10984;45.712;4.800;2022-11-20T13:26:44;3.65;;;1.25;;
21645;SDS011;10984;45.712;4.800;2022-11-20T13:29:11;3.63;;;1.42;;
21645;SDS011;10984;45.712;4.800;2022-11-20T13:40:13;3.47;;;1.38;;
21645;SDS011;10984;45.712;4.800;2022-11-20T13:42:46;2.80;;;1.10;;
21645;SDS011;10984;45.712;4.800;2022-11-20T13:45:35;3.72;;;1.13;;
21645;SDS011;10984;45.712;4.800;2022-11-20T13:48:02;4.63;;;0.95;;
21645;SDS011;10984;45.712;4.800;2022-11-20T14:02:40;3.83;;;1.02;;
21645;SDS011;10984;45.712;4.800;2022-11-20T14:05:12;3.97;;;1.35;;
21645;SDS011;10984;45.712;4.800;2022-11-20T14:07:44;2.75;;;0.75;;
21645;SDS011;10984;45.712;4.800;2022-11-20T14:12:55;2.85;;;1.13;;
21645;SDS011;10984;45.712;4.800;2022-11-20T14:20:50;4.45;;;1.08;;
21645;SDS011;10984;45.712;4.800;2022-11-20T14:26:00;4.90;;;1.20;;
21645;SDS011;10984;45.712;4.800;2022-11-20T14:28:27;2.88;;;1.15;;
21645;SDS011;10984;45.712;4.800;2022-11-20T14:30:55;5.35;;;0.98;;
21645;SDS011;10984;45.712;4.800;2022-11-20T14:33:22;3.63;;;1.13;;
21645;SDS011;10984;45.712;4.800;2022-11-20T14:38:41;4.30;;;1.35;;
21645;SDS011;10984;45.712;4.800;2022-11-20T14:41:08;3.22;;;1.80;;
21645;SDS011;10984;45.712;4.800;2022-11-20T14:43:44;7.75;;;1.80;;
21645;SDS011;10984;45.712;4.800;2022-11-20T14:46:11;9.00;;;2.65;;
21645;SDS011;10984;45.712;4.800;2022-11-20T14:48:39;6.90;;;2.25;;
21645;SDS011;10984;45.712;4.800;2022-11-20T14:59:45;6.18;;;2.50;;
21645;SDS011;10984;45.712;4.800;2022-11-20T15:02:11;5.40;;;2.70;;
21645;SDS011;10984;45.712;4.800;2022-11-20T15:10:28;6.65;;;2.17;;
21645;SDS011;10984;45.712;4.800;2022-11-20T15:12:55;6.22;;;2.17;;
21645;SDS011;10984;45.712;4.800;2022-11-20T15:21:10;6.22;;;1.67;;
21645;SDS011;10984;45.712;4.800;2022-11-20T15:23:37;5.07;;;2.00;;
21645;SDS011;10984;45.712;4.800;2022-11-20T15:28:49;7.30;;;2.33;;
21645;SDS011;10984;45.712;4.800;2022-11-20T15:31:16;4.50;;;1.50;;
21645;SDS011;10984;45.712;4.800;2022-11-20T15:33:44;7.13;;;1.95;;
21645;SDS011;10984;45.712;4.800;2022-11-20T15:36:10;5.57;;;1.92;;
21645;SDS011;10984;45.712;4.800;2022-11-20T15:38:36;6.20;;;2.35;;
21645;SDS011;10984;45.712;4.800;2022-11-20T15:41:01;5.28;;;1.60;;
21645;SDS011;10984;45.712;4.800;2022-11-20T15:43:27;6.07;;;1.50;;
21645;SDS011;10984;45.712;4.800;2022-11-20T15:45:55;3.78;;;1.00;;
21645;SDS011;10984;45.712;4.800;2022-11-20T15:53:39;2.80;;;1.08;;
21645;SDS011;10984;45.712;4.800;2022-11-20T15:56:08;3.03;;;1.23;;
21645;SDS011;10984;45.712;4.800;2022-11-20T15:58:37;5.70;;;2.30;;
21645;SDS011;10984;45.712;4.800;2022-11-20T16:01:03;6.15;;;2.30;;
21645;SDS011;10984;45.712;4.800;2022-11-20T16:03:29;10.05;;;3.15;;
21645;SDS011;10984;45.712;4.800;2022-11-20T16:05:55;6.72;;;2.80;;
21645;SDS011;10984;45.712;4.800;2022-11-20T16:08:20;5.82;;;2.47;;
21645;SDS011;10984;45.712;4.800;2022-11-20T16:10:46;7.53;;;3.10;;
21645;SDS011;10984;45.712;4.800;2022-11-20T16:19:01;6.90;;;1.77;;
21645;SDS011;10984;45.712;4.800;2022-11-20T16:21:27;3.55;;;1.75;;
21645;SDS011;10984;45.712;4.800;2022-11-20T16:23:57;4.13;;;1.67;;
21645;SDS011;10984;45.712;4.800;2022-11-20T16:26:23;4.78;;;2.08;;
21645;SDS011;10984;45.712;4.800;2022-11-20T16:28:49;4.00;;;1.63;;
21645;SDS011;10984;45.712;4.800;2022-11-20T16:31:15;5.93;;;2.08;;
21645;SDS011;10984;45.712;4.800;2022-11-20T16:33:43;7.45;;;1.70;;
21645;SDS011;10984;45.712;4.800;2022-11-20T16:36:32;6.28;;;1.83;;
21645;SDS011;10984;45.712;4.800;2022-11-20T16:38:59;4.22;;;1.67;;
21645;SDS011;10984;45.712;4.800;2022-11-20T16:41:30;3.97;;;1.80;;
21645;SDS011;10984;45.712;4.800;2022-11-20T16:43:58;6.28;;;1.77;;
21645;SDS011;10984;45.712;4.800;2022-11-20T16:46:27;5.55;;;2.17;;
21645;SDS011;10984;45.712;4.800;2022-11-20T16:49:12;8.75;;;2.70;;
21645;SDS011;10984;45.712;4.800;2022-11-20T16:51:38;6.47;;;2.35;;
21645;SDS011;10984;45.712;4.800;2022-11-20T16:54:04;3.78;;;1.92;;
21645;SDS011;10984;45.712;4.800;2022-11-20T16:56:31;3.92;;;1.98;;
21645;SDS011;10984;45.712;4.800;2022-11-20T16:58:58;5.53;;;2.00;;
21645;SDS011;10984;45.712;4.800;2022-11-20T17:01:24;4.50;;;2.08;;
21645;SDS011;10984;45.712;4.800;2022-11-20T17:03:53;5.65;;;2.50;;
21645;SDS011;10984;45.712;4.800;2022-11-20T17:06:22;7.53;;;2.58;;
21645;SDS011;10984;45.712;4.800;2022-11-20T17:08:49;5.38;;;2.47;;
21645;SDS011;10984;45.712;4.800;2022-11-20T17:11:15;7.03;;;3.00;;
21645;SDS011;10984;45.712;4.800;2022-11-20T17:13:42;7.53;;;2.60;;
21645;SDS011;10984;45.712;4.800;2022-11-20T17:16:10;5.00;;;2.38;;
21645;SDS011;10984;45.712;4.800;2022-11-20T17:18:55;7.18;;;2.30;;
21645;SDS011;10984;45.712;4.800;2022-11-20T17:21:22;6.78;;;2.88;;
21645;SDS011;10984;45.712;4.800;2022-11-20T17:23:47;6.82;;;2.42;;
21645;SDS011;10984;45.712;4.800;2022-11-20T17:26:14;5.75;;;2.90;;
21645;SDS011;10984;45.712;4.800;2022-11-20T17:28:42;9.23;;;3.35;;
21645;SDS011;10984;45.712;4.800;2022-11-20T17:31:10;4.95;;;2.55;;
21645;SDS011;10984;45.712;4.800;2022-11-20T17:33:38;6.10;;;2.90;;
21645;SDS011;10984;45.712;4.800;2022-11-20T17:36:05;6.82;;;2.40;;
21645;SDS011;10984;45.712;4.800;2022-11-20T17:38:33;4.60;;;2.58;;
21645;SDS011;10984;45.712;4.800;2022-11-20T17:43:46;5.90;;;2.60;;
21645;SDS011;10984;45.712;4.800;2022-11-20T17:46:16;6.75;;;2.90;;
21645;SDS011;10984;45.712;4.800;2022-11-20T17:48:44;5.88;;;3.08;;
21645;SDS011;10984;45.712;4.800;2022-11-20T17:51:11;6.47;;;3.28;;
21645;SDS011;10984;45.712;4.800;2022-11-20T17:53:43;10.82;;;3.45;;
21645;SDS011;10984;45.712;4.800;2022-11-20T17:56:11;13.48;;;3.40;;
21645;SDS011;10984;45.712;4.800;2022-11-20T17:58:55;7.18;;;3.38;;
21645;SDS011;10984;45.712;4.800;2022-11-20T18:01:21;6.82;;;2.97;;
21645;SDS011;10984;45.712;4.800;2022-11-20T18:03:47;8.93;;;3.35;;
21645;SDS011;10984;45.712;4.800;2022-11-20T18:06:14;9.38;;;2.58;;
21645;SDS011;10984;45.712;4.800;2022-11-20T18:09:00;6.03;;;2.90;;
21645;SDS011;10984;45.712;4.800;2022-11-20T18:11:28;5.80;;;2.92;;
21645;SDS011;10984;45.712;4.800;2022-11-20T18:13:57;7.22;;;3.13;;
21645;SDS011;10984;45.712;4.800;2022-11-20T18:19:46;10.15;;;4.10;;
21645;SDS011;10984;45.712;4.800;2022-11-20T18:22:15;8.68;;;3.80;;
21645;SDS011;10984;45.712;4.800;2022-11-20T18:24:42;8.50;;;4.05;;
21645;SDS011;10984;45.712;4.800;2022-11-20T18:27:11;9.82;;;4.78;;
21645;SDS011;10984;45.712;4.800;2022-11-20T18:29:39;11.30;;;5.38;;
21645;SDS011;10984;45.712;4.800;2022-11-20T18:32:05;9.38;;;4.03;;
21645;SDS011;10984;45.712;4.800;2022-11-20T18:34:30;8.18;;;4.32;;
21645;SDS011;10984;45.712;4.800;2022-11-20T18:36:56;8.30;;;4.55;;
21645;SDS011;10984;45.712;4.800;2022-11-20T18:39:22;12.80;;;5.35;;
21645;SDS011;10984;45.712;4.800;2022-11-20T18:41:48;8.38;;;5.28;;
21645;SDS011;10984;45.712;4.800;2022-11-20T18:44:32;12.43;;;5.53;;
21645;SDS011;10984;45.712;4.800;2022-11-20T18:47:17;13.73;;;6.53;;
21645;SDS011;10984;45.712;4.800;2022-11-20T18:50:04;13.07;;;6.97;;
21645;SDS011;10984;45.712;4.800;2022-11-20T18:52:32;13.07;;;6.72;;
21645;SDS011;10984;45.712;4.800;2022-11-20T18:54:59;12.45;;;6.20;;
21645;SDS011;10984;45.712;4.800;2022-11-20T18:57:27;11.63;;;6.35;;
21645;SDS011;10984;45.712;4.800;2022-11-20T18:59:54;16.85;;;5.90;;
21645;SDS011;10984;45.712;4.800;2022-11-20T19:02:20;13.13;;;6.15;;
21645;SDS011;10984;45.712;4.800;2022-11-20T19:04:46;12.57;;;6.80;;
21645;SDS011;10984;45.712;4.800;2022-11-20T19:07:12;13.57;;;6.32;;